Time;durP1;ratioP1;P1;durP2;ratioP2;P2;SDS_P1;SDS_P2;PMS_P1;PMS_P2;Temp;Humidity;BMP_temperature;BMP_pressure;BME280_temperature;BME280_humidity;BME280_pressure;Samples;Min_cycle;Max_cycle;Signal;HPM_P1;HPM_P2
2023/08/09 00:01:08;;;;;;;12.23;8.43;;;12.30;99.90;;;;;;7380303;19;20609;-58
2023/08/09 00:03:34;;;;;;;13.70;8.40;;;12.20;99.90;;;;;;7377876;19;20344;-58
2023/08/09 00:06:00;;;;;;;14.00;9.13;;;12.30;99.90;;;;;;7378128;19;20007;-58
2023/08/09 00:08:26;;;;;;;13.07;9.32;;;12.20;99.90;;;;;;7377569;19;20496;-59
2023/08/09 00:10:52;;;;;;;12.90;8.30;;;12.20;99.90;;;;;;7380309;19;20368;-58
2023/08/09 00:13:18;;;;;;;15.40;9.90;;;12.20;99.90;;;;;;7380092;19;20049;-58
2023/08/09 00:15:45;;;;;;;14.05;9.63;;;12.20;99.90;;;;;;7377303;19;20518;-58
2023/08/09 00:18:11;;;;;;;14.15;9.52;;;12.30;99.90;;;;;;7377521;19;20018;-59
2023/08/09 00:20:37;;;;;;;13.15;9.77;;;12.30;99.90;;;;;;7376752;19;20018;-65
2023/08/09 00:23:03;;;;;;;14.85;10.77;;;12.40;99.90;;;;;;7379005;19;20019;-59
2023/08/09 00:25:30;;;;;;;16.10;10.63;;;12.40;99.90;;;;;;7371482;19;20015;-59
2023/08/09 00:27:56;;;;;;;16.67;11.50;;;12.50;99.90;;;;;;7379340;19;20029;-64
2023/08/09 00:30:22;;;;;;;18.35;11.23;;;12.50;99.90;;;;;;7375006;19;20477;-58
2023/08/09 00:32:49;;;;;;;16.70;11.60;;;12.60;99.90;;;;;;7376889;19;20538;-58
2023/08/09 00:35:15;;;;;;;19.58;12.68;;;12.60;99.90;;;;;;7377518;19;20019;-64
2023/08/09 00:37:42;;;;;;;16.98;12.82;;;12.70;99.90;;;;;;7375916;19;20582;-59
2023/08/09 00:40:11;;;;;;;15.88;12.18;;;12.70;99.90;;;;;;7377336;19;20545;-63
2023/08/09 00:42:39;;;;;;;17.80;13.32;;;12.80;99.90;;;;;;7377622;19;20042;-63
2023/08/09 00:45:07;;;;;;;22.58;14.55;;;12.80;99.90;;;;;;7378478;19;20030;-63
2023/08/09 00:47:35;;;;;;;23.40;14.77;;;12.80;99.90;;;;;;7377799;19;20683;-63
2023/08/09 00:50:03;;;;;;;20.67;14.65;;;12.90;99.90;;;;;;7375007;19;20355;-63
2023/08/09 00:52:30;;;;;;;24.45;15.40;;;12.90;99.90;;;;;;7375688;19;20018;-65
2023/08/09 00:54:57;;;;;;;23.52;16.20;;;12.90;99.90;;;;;;7375658;19;20014;-63
2023/08/09 00:57:23;;;;;;;36.70;17.42;;;13.00;99.90;;;;;;7369879;19;20022;-61
2023/08/09 00:59:50;;;;;;;31.65;18.27;;;12.90;99.90;;;;;;7365843;19;20026;-65
2023/08/09 01:02:16;;;;;;;31.00;17.63;;;12.90;99.90;;;;;;7365346;19;20478;-62
2023/08/09 01:04:43;;;;;;;41.22;18.27;;;13.00;99.90;;;;;;7372665;19;20443;-62
2023/08/09 01:07:32;;;;;;;35.03;18.45;;;13.00;99.90;;;;;;7372397;19;20366;-57
2023/08/09 01:10:15;;;;;;;30.20;17.92;;;13.00;99.90;;;;;;7373559;19;20397;-62
2023/08/09 01:12:49;;;;;;;39.67;19.98;;;13.00;99.90;;;;;;7373561;19;20023;-63
2023/08/09 01:15:18;;;;;;;29.50;18.65;;;13.00;99.90;;;;;;7377142;19;20497;-62
2023/08/09 01:17:48;;;;;;;32.70;20.63;;;13.00;99.90;;;;;;7373695;19;20019;-62
2023/08/09 01:20:16;;;;;;;29.85;18.95;;;13.00;99.90;;;;;;7376698;19;20018;-62
2023/08/09 01:23:02;;;;;;;28.67;18.85;;;13.00;99.90;;;;;;7374776;19;20018;-58
2023/08/09 01:25:30;;;;;;;34.10;20.73;;;12.90;99.90;;;;;;7374376;19;20025;-58
2023/08/09 01:27:57;;;;;;;23.67;18.20;;;12.90;99.90;;;;;;7377665;19;20023;-61
2023/08/09 01:30:24;;;;;;;29.13;19.45;;;12.90;99.90;;;;;;7371618;19;20026;-59
2023/08/09 01:32:53;;;;;;;31.13;19.15;;;12.90;99.90;;;;;;7376394;19;20187;-61
2023/08/09 01:35:20;;;;;;;33.15;19.98;;;13.00;99.90;;;;;;7374459;19;20229;-58
2023/08/09 01:37:59;;;;;;;32.42;19.80;;;13.00;99.90;;;;;;7372664;19;20026;-58
2023/08/09 01:40:26;;;;;;;36.67;22.00;;;12.90;99.90;;;;;;7376170;19;20021;-58
2023/08/09 01:42:54;;;;;;;29.45;20.42;;;13.00;99.90;;;;;;7375123;19;20373;-59
2023/08/09 01:45:21;;;;;;;33.03;20.77;;;13.00;99.90;;;;;;7376652;19;20032;-58
2023/08/09 01:47:48;;;;;;;33.75;20.92;;;13.00;99.90;;;;;;7374264;19;20017;-58
2023/08/09 01:50:25;;;;;;;31.75;21.25;;;13.00;99.90;;;;;;7365002;19;20467;-59
2023/08/09 01:52:55;;;;;;;27.05;19.58;;;13.00;99.90;;;;;;7227516;19;2838150;-58
2023/08/09 01:55:25;;;;;;;35.38;20.95;;;12.90;99.90;;;;;;7376393;19;20034;-58
2023/08/09 01:58:11;;;;;;;30.00;20.15;;;12.90;99.90;;;;;;7374675;19;20010;-58
2023/08/09 02:00:38;;;;;;;27.00;19.90;;;12.90;99.90;;;;;;7374817;19;20018;-58
2023/08/09 02:03:06;;;;;;;25.73;19.52;;;12.90;99.90;;;;;;7375903;19;20019;-58
2023/08/09 02:05:33;;;;;;;25.88;19.38;;;12.90;99.90;;;;;;7375723;19;20026;-59
2023/08/09 02:08:04;;;;;;;26.95;19.05;;;12.80;99.90;;;;;;7373005;19;20520;-58
2023/08/09 02:10:30;;;;;;;27.30;20.75;;;12.80;99.90;;;;;;7371436;19;20018;-58
2023/08/09 02:12:57;;;;;;;24.35;19.00;;;12.80;99.90;;;;;;7375966;19;20479;-63
2023/08/09 02:15:24;;;;;;;26.48;18.95;;;12.80;99.90;;;;;;7377239;19;20052;-62
2023/08/09 02:17:51;;;;;;;33.05;20.63;;;12.80;99.90;;;;;;7372906;19;20024;-62
2023/08/09 02:20:21;;;;;;;27.83;19.25;;;12.70;99.90;;;;;;7374291;19;20018;-63
2023/08/09 02:22:48;;;;;;;36.67;20.60;;;12.70;99.90;;;;;;7372539;19;20018;-62
2023/08/09 02:25:15;;;;;;;31.83;19.80;;;12.70;99.90;;;;;;7374814;19;20025;-59
2023/08/09 02:27:41;;;;;;;30.75;20.50;;;12.70;99.90;;;;;;7373697;19;20021;-59
2023/08/09 02:30:09;;;;;;;29.52;21.10;;;12.60;99.90;;;;;;7370166;19;20119;-58
2023/08/09 02:32:36;;;;;;;30.73;20.73;;;12.60;99.90;;;;;;7372358;19;20550;-59
2023/08/09 02:35:05;;;;;;;31.70;20.77;;;12.60;99.90;;;;;;7377136;19;20570;-58
2023/08/09 02:37:32;;;;;;;35.10;21.52;;;12.60;99.90;;;;;;7373151;19;20478;-58
2023/08/09 02:39:59;;;;;;;30.15;21.17;;;12.60;99.90;;;;;;7373060;19;20019;-57
2023/08/09 02:42:25;;;;;;;33.38;21.88;;;12.60;99.90;;;;;;7372779;19;20028;-58
2023/08/09 02:44:52;;;;;;;32.65;21.70;;;12.50;99.90;;;;;;7374005;19;20470;-58
2023/08/09 02:47:18;;;;;;;33.97;20.77;;;12.50;99.90;;;;;;7374386;19;20082;-58
2023/08/09 02:49:45;;;;;;;30.55;20.50;;;12.50;99.90;;;;;;7372908;19;20021;-58
2023/08/09 02:52:12;;;;;;;29.80;20.92;;;12.50;99.90;;;;;;7372758;19;20035;-58
2023/08/09 02:54:38;;;;;;;26.92;20.63;;;12.40;99.90;;;;;;7373049;19;20359;-58
2023/08/09 02:57:04;;;;;;;35.28;22.02;;;12.40;99.90;;;;;;7373522;19;20029;-58
2023/08/09 02:59:30;;;;;;;35.90;23.45;;;12.40;99.90;;;;;;7372187;19;20022;-58
2023/08/09 03:01:57;;;;;;;32.50;22.75;;;12.40;99.90;;;;;;7373158;19;20014;-58
2023/08/09 03:04:24;;;;;;;34.20;22.13;;;12.40;99.90;;;;;;7373037;19;20481;-59
2023/08/09 03:06:50;;;;;;;37.38;22.92;;;12.40;99.90;;;;;;7373138;19;20074;-63
2023/08/09 03:09:17;;;;;;;48.17;25.40;;;12.30;99.90;;;;;;7372467;19;20046;-64
2023/08/09 03:11:43;;;;;;;39.35;24.77;;;12.30;99.90;;;;;;7371811;19;20386;-63
2023/08/09 03:14:13;;;;;;;59.67;26.17;;;12.30;99.90;;;;;;7371187;19;20025;-63
2023/08/09 03:16:41;;;;;;;44.55;25.35;;;12.30;99.90;;;;;;7373390;19;20046;-63
2023/08/09 03:19:08;;;;;;;42.67;26.15;;;12.30;99.90;;;;;;7375801;19;20022;-63
2023/08/09 03:21:35;;;;;;;53.65;27.00;;;12.30;99.90;;;;;;7367189;19;20382;-65
2023/08/09 03:24:02;;;;;;;38.83;24.52;;;12.30;99.90;;;;;;7372845;19;20502;-63
2023/08/09 03:26:28;;;;;;;45.15;26.38;;;12.30;99.90;;;;;;7371884;19;20085;-63
2023/08/09 03:28:58;;;;;;;44.08;24.80;;;12.30;99.90;;;;;;7372531;19;20019;-61
2023/08/09 03:31:24;;;;;;;54.85;25.30;;;12.30;99.90;;;;;;7371211;19;20297;-61
2023/08/09 03:33:52;;;;;;;35.78;24.10;;;12.30;99.90;;;;;;7371335;19;20351;-62
2023/08/09 03:36:18;;;;;;;36.83;25.48;;;12.30;99.90;;;;;;7371627;19;20022;-62
2023/08/09 03:38:44;;;;;;;36.22;24.80;;;12.30;99.90;;;;;;7369380;19;20561;-62
2023/08/09 03:41:10;;;;;;;53.60;25.05;;;12.20;99.90;;;;;;7370088;19;20441;-63
2023/08/09 03:43:38;;;;;;;44.17;24.20;;;12.20;99.90;;;;;;7371672;19;20505;-62
2023/08/09 03:46:05;;;;;;;45.97;25.10;;;12.20;99.90;;;;;;7375397;19;20018;-58
2023/08/09 03:48:31;;;;;;;60.17;26.63;;;12.10;99.90;;;;;;7373365;19;20025;-62
2023/08/09 03:50:58;;;;;;;41.17;24.75;;;12.10;99.90;;;;;;7370627;19;20015;-62
2023/08/09 03:53:25;;;;;;;38.30;23.77;;;12.10;99.90;;;;;;7371545;19;20018;-57
2023/08/09 03:55:52;;;;;;;41.95;23.88;;;12.00;99.90;;;;;;7371405;19;20082;-62
2023/08/09 03:58:19;;;;;;;36.72;24.33;;;12.00;99.90;;;;;;7372163;19;20026;-57
2023/08/09 04:00:45;;;;;;;42.55;25.70;;;12.00;99.90;;;;;;7369708;19;20023;-57
2023/08/09 04:03:12;;;;;;;37.33;24.95;;;12.00;99.90;;;;;;7371885;19;20019;-62
2023/08/09 04:05:39;;;;;;;36.70;25.30;;;11.90;99.90;;;;;;7369835;19;20539;-62
2023/08/09 04:08:06;;;;;;;32.60;24.38;;;11.90;99.90;;;;;;7371101;19;20486;-57
2023/08/09 04:10:33;;;;;;;28.38;22.42;;;11.90;99.90;;;;;;7369199;19;20429;-57
2023/08/09 04:12:59;;;;;;;31.02;23.65;;;11.80;99.90;;;;;;7370718;19;20486;-62
2023/08/09 04:15:27;;;;;;;26.15;23.23;;;11.80;99.90;;;;;;7371982;19;20383;-61
2023/08/09 04:17:54;;;;;;;29.35;24.25;;;11.70;99.90;;;;;;7371133;19;20042;-62
2023/08/09 04:20:22;;;;;;;28.70;22.10;;;11.70;99.90;;;;;;7372815;19;20461;-63
2023/08/09 04:22:49;;;;;;;23.40;20.85;;;11.60;99.90;;;;;;7368724;19;20658;-62
2023/08/09 04:25:15;;;;;;;21.40;19.13;;;11.50;99.90;;;;;;7369915;19;20018;-63
2023/08/09 04:27:42;;;;;;;25.08;21.55;;;11.50;99.90;;;;;;7370850;19;20056;-60
2023/08/09 04:30:09;;;;;;;28.60;22.92;;;11.50;99.90;;;;;;7369159;19;20019;-63
2023/08/09 04:32:38;;;;;;;25.05;21.90;;;11.40;99.90;;;;;;7378760;19;20078;-62
2023/08/09 04:35:05;;;;;;;28.67;22.77;;;11.30;99.90;;;;;;7373373;19;20018;-62
2023/08/09 04:37:31;;;;;;;24.67;21.98;;;11.40;99.90;;;;;;7379125;19;20026;-58
2023/08/09 04:39:58;;;;;;;30.35;22.83;;;11.30;99.90;;;;;;7378229;19;20373;-58
2023/08/09 04:42:24;;;;;;;37.13;25.90;;;11.30;99.90;;;;;;7375719;19;20371;-63
2023/08/09 04:44:50;;;;;;;53.90;26.23;;;11.40;99.90;;;;;;7379815;19;20528;-63
2023/08/09 04:47:17;;;;;;;33.67;23.73;;;11.40;99.90;;;;;;7376535;19;20021;-58
2023/08/09 04:49:43;;;;;;;29.48;24.58;;;11.50;99.90;;;;;;7373889;19;20330;-63
2023/08/09 04:52:10;;;;;;;27.73;24.73;;;11.40;99.90;;;;;;7375297;19;20090;-58
2023/08/09 04:54:37;;;;;;;26.80;23.90;;;11.50;99.90;;;;;;7375854;19;20538;-59
2023/08/09 04:57:03;;;;;;;26.70;23.33;;;11.50;99.90;;;;;;7376613;19;20026;-58
2023/08/09 04:59:30;;;;;;;28.45;22.95;;;11.50;99.90;;;;;;7374661;19;20026;-57
2023/08/09 05:01:56;;;;;;;48.53;25.17;;;11.50;99.90;;;;;;7377599;19;20018;-57
2023/08/09 05:04:22;;;;;;;69.47;25.80;;;11.60;99.90;;;;;;7379164;19;20681;-58
2023/08/09 05:06:48;;;;;;;71.40;25.58;;;11.60;99.90;;;;;;7375619;19;20026;-62
2023/08/09 05:09:14;;;;;;;47.33;24.92;;;11.60;99.90;;;;;;7375672;19;20467;-59
2023/08/09 05:11:41;;;;;;;61.53;26.10;;;11.70;99.90;;;;;;7374072;19;20022;-58
2023/08/09 05:14:07;;;;;;;54.35;23.67;;;11.70;99.90;;;;;;7377011;19;20363;-58
2023/08/09 05:16:34;;;;;;;46.83;23.63;;;11.80;99.90;;;;;;7378237;19;20066;-58
2023/08/09 05:19:01;;;;;;;41.05;24.40;;;11.80;99.90;;;;;;7376401;19;20674;-58
2023/08/09 05:21:27;;;;;;;26.85;21.83;;;11.90;99.90;;;;;;7378653;19;20037;-58
2023/08/09 05:23:53;;;;;;;23.27;20.80;;;12.00;99.90;;;;;;7375146;19;20038;-58
2023/08/09 05:26:20;;;;;;;20.35;18.45;;;12.10;99.90;;;;;;7378238;19;20020;-59
2023/08/09 05:28:46;;;;;;;18.45;16.55;;;12.30;99.90;;;;;;7374056;19;20022;-59
2023/08/09 05:31:15;;;;;;;16.40;14.70;;;12.60;99.90;;;;;;7376561;19;20360;-58
2023/08/09 05:33:41;;;;;;;15.40;14.00;;;12.90;99.90;;;;;;7375390;19;20473;-59
2023/08/09 05:36:08;;;;;;;13.35;12.15;;;13.10;99.90;;;;;;7374018;19;20015;-63
2023/08/09 05:38:34;;;;;;;11.95;10.85;;;13.30;99.90;;;;;;7375427;19;20022;-59
2023/08/09 05:41:03;;;;;;;11.05;10.07;;;13.40;99.90;;;;;;7374815;19;20125;-59
2023/08/09 05:43:29;;;;;;;10.40;9.40;;;13.50;99.90;;;;;;7375744;19;20074;-59
2023/08/09 05:45:56;;;;;;;10.82;9.82;;;13.60;99.90;;;;;;7374814;19;20042;-59
2023/08/09 05:48:22;;;;;;;122.72;109.47;;;13.70;99.90;;;;;;7377743;19;20014;-64
2023/08/09 05:50:48;;;;;;;11.20;9.98;;;13.90;99.90;;;;;;7374533;19;20489;-66
2023/08/09 05:53:15;;;;;;;9.10;8.20;;;14.20;99.90;;;;;;7372222;19;20070;-62
2023/08/09 05:55:42;;;;;;;8.38;7.57;;;14.20;99.90;;;;;;7374092;19;20370;-62
2023/08/09 05:58:08;;;;;;;8.10;7.35;;;14.20;99.90;;;;;;7374103;19;20018;-63
2023/08/09 06:00:35;;;;;;;7.97;7.28;;;14.20;99.90;;;;;;7373382;19;20030;-63
2023/08/09 06:03:01;;;;;;;8.02;7.20;;;14.30;99.90;;;;;;7372724;19;20553;-62
2023/08/09 06:05:28;;;;;;;15.27;13.73;;;14.40;99.90;;;;;;7374051;19;20018;-62
2023/08/09 06:07:55;;;;;;;9.23;7.13;;;14.40;99.90;;;;;;7374216;19;20026;-62
2023/08/09 06:10:25;;;;;;;8.75;6.22;;;14.60;99.90;;;;;;7371544;19;20404;-61
2023/08/09 06:12:52;;;;;;;7.93;7.13;;;14.60;99.90;;;;;;7372764;19;20111;-62
2023/08/09 06:15:20;;;;;;;6.93;6.22;;;14.60;99.90;;;;;;7377433;19;20038;-62
2023/08/09 06:17:46;;;;;;;7.15;5.78;;;14.80;99.90;;;;;;7374921;19;20014;-62
2023/08/09 06:20:13;;;;;;;6.90;6.13;;;14.90;99.90;;;;;;7376018;19;20011;-63
2023/08/09 06:22:40;;;;;;;7.50;6.25;;;15.00;99.90;;;;;;7375775;19;20078;-62
2023/08/09 06:25:10;;;;;;;6.32;5.72;;;15.10;99.90;;;;;;7377173;19;20447;-63
2023/08/09 06:27:36;;;;;;;6.13;5.53;;;15.20;99.90;;;;;;7373140;19;20018;-62
2023/08/09 06:30:03;;;;;;;6.22;5.63;;;15.40;99.90;;;;;;7374868;19;20037;-62
2023/08/09 06:32:30;;;;;;;6.10;5.50;;;15.50;99.90;;;;;;7375501;19;20394;-62
2023/08/09 06:34:57;;;;;;;6.53;4.88;;;15.50;99.90;;;;;;7373773;19;20029;-58
2023/08/09 06:37:23;;;;;;;5.85;4.97;;;15.90;99.90;;;;;;7374854;19;20010;-60
2023/08/09 06:39:49;;;;;;;5.07;4.57;;;16.10;99.90;;;;;;7373677;19;20387;-62
2023/08/09 06:42:16;;;;;;;6.25;4.47;;;16.30;99.90;;;;;;7375192;19;20012;-62
2023/08/09 06:44:46;;;;;;;4.57;4.05;;;16.40;99.90;;;;;;7372658;19;20026;-58
2023/08/09 06:47:12;;;;;;;7.25;4.30;;;16.50;99.90;;;;;;7375724;19;20031;-58
2023/08/09 06:49:38;;;;;;;5.15;3.92;;;16.60;99.90;;;;;;7373493;19;20398;-58
2023/08/09 06:52:05;;;;;;;4.55;3.80;;;16.70;99.90;;;;;;7374912;19;20490;-58
2023/08/09 06:54:31;;;;;;;5.35;3.75;;;16.70;99.90;;;;;;7372952;19;20026;-59
2023/08/09 06:56:58;;;;;;;4.18;3.42;;;17.00;99.90;;;;;;7374237;19;20022;-58
2023/08/09 06:59:24;;;;;;;5.53;3.30;;;17.10;99.90;;;;;;7376412;19;20458;-59
2023/08/09 07:01:50;;;;;;;4.28;3.42;;;17.20;99.90;;;;;;7371478;19;20376;-58
2023/08/09 07:04:17;;;;;;;3.72;3.25;;;17.40;99.90;;;;;;7375831;19;20387;-60
2023/08/09 07:06:44;;;;;;;5.35;3.53;;;17.70;99.90;;;;;;7373619;19;20011;-58
2023/08/09 07:09:13;;;;;;;5.60;3.50;;;17.70;99.90;;;;;;7370105;19;20038;-59
2023/08/09 07:11:40;;;;;;;5.00;3.20;;;17.90;99.90;;;;;;7373435;19;20021;-58
2023/08/09 07:14:06;;;;;;;3.30;2.55;;;18.00;99.90;;;;;;7372218;19;20365;-58
2023/08/09 07:16:32;;;;;;;4.10;2.60;;;18.20;99.90;;;;;;7375661;19;20373;-58
2023/08/09 07:18:59;;;;;;;3.88;2.65;;;18.50;99.90;;;;;;7373854;19;20042;-62
2023/08/09 07:21:27;;;;;;;3.92;2.80;;;18.60;99.90;;;;;;7372278;19;20014;-62
2023/08/09 07:23:54;;;;;;;5.55;3.00;;;18.90;99.90;;;;;;7370525;19;20039;-62
2023/08/09 07:26:20;;;;;;;5.25;2.47;;;18.90;99.90;;;;;;7372315;19;20010;-62
2023/08/09 07:28:46;;;;;;;4.60;2.40;;;18.90;99.90;;;;;;7371239;19;20015;-65
2023/08/09 07:31:18;;;;;;;5.72;2.45;;;19.20;99.90;;;;;;7373933;19;20018;-62
2023/08/09 07:33:45;;;;;;;4.30;2.20;;;19.60;99.90;;;;;;7373767;19;20539;-62
2023/08/09 07:36:11;;;;;;;4.70;2.42;;;19.80;99.90;;;;;;7374603;19;20049;-58
2023/08/09 07:38:37;;;;;;;4.05;2.47;;;20.00;99.90;;;;;;7373114;19;20019;-58
2023/08/09 07:41:04;;;;;;;3.05;2.28;;;19.90;99.90;;;;;;7372068;19;20632;-58
2023/08/09 07:43:31;;;;;;;3.50;2.40;;;19.90;99.90;;;;;;7372617;19;20018;-58
2023/08/09 07:45:57;;;;;;;4.85;2.33;;;20.10;99.90;;;;;;7371353;19;20018;-59
2023/08/09 07:48:23;;;;;;;4.60;2.20;;;20.10;99.90;;;;;;7371217;19;20014;-58
2023/08/09 07:50:49;;;;;;;4.18;1.88;;;20.20;99.90;;;;;;7368444;19;20019;-58
2023/08/09 07:53:16;;;;;;;5.18;3.00;;;20.20;99.90;;;;;;7369299;19;20018;-58
2023/08/09 07:55:43;;;;;;;2.40;1.75;;;20.40;99.90;;;;;;7369809;19;20085;-58
2023/08/09 07:58:09;;;;;;;4.32;2.30;;;20.30;99.90;;;;;;7373718;19;20602;-59
2023/08/09 08:00:35;;;;;;;5.22;2.33;;;20.70;99.90;;;;;;7371062;19;20019;-58
2023/08/09 08:03:03;;;;;;;3.35;2.30;;;20.90;99.90;;;;;;7371276;19;20479;-59
2023/08/09 08:05:29;;;;;;;3.28;2.15;;;21.00;99.90;;;;;;7372704;19;20467;-59
2023/08/09 08:07:56;;;;;;;2.92;2.00;;;20.90;99.90;;;;;;7377620;19;20096;-59
2023/08/09 08:10:23;;;;;;;3.15;2.25;;;20.90;99.90;;;;;;7376562;19;20345;-59
2023/08/09 08:12:49;;;;;;;3.83;2.47;;;21.20;99.90;;;;;;7377505;19;20467;-58
2023/08/09 08:15:17;;;;;;;3.45;1.42;;;21.50;99.90;;;;;;7380822;19;20085;-62
2023/08/09 08:17:46;;;;;;;3.65;1.85;;;21.60;99.90;;;;;;7377452;19;20014;-62
2023/08/09 08:20:15;;;;;;;4.65;2.10;;;21.70;99.90;;;;;;7379547;19;20042;-59
2023/08/09 08:22:47;;;;;;;3.15;1.95;;;21.70;99.90;;;;;;7380000;19;20018;-58
2023/08/09 08:25:14;;;;;;;5.10;1.90;;;22.00;99.90;;;;;;7377907;19;20334;-59
2023/08/09 08:27:42;;;;;;;5.15;2.45;;;22.20;99.90;;;;;;7378276;19;20026;-62
2023/08/09 08:30:09;;;;;;;3.85;2.03;;;22.00;99.90;;;;;;7378941;19;20608;-62
2023/08/09 08:32:36;;;;;;;4.50;2.28;;;22.10;99.90;;;;;;7380074;19;20054;-58
2023/08/09 08:35:03;;;;;;;5.05;2.53;;;22.10;99.90;;;;;;7381004;19;20089;-58
2023/08/09 08:37:32;;;;;;;5.68;2.40;;;22.30;99.90;;;;;;7379470;19;20018;-58
2023/08/09 08:39:58;;;;;;;3.88;1.98;;;22.50;99.90;;;;;;7381263;19;20102;-58
2023/08/09 08:42:27;;;;;;;2.97;1.42;;;22.40;99.90;;;;;;7379782;19;20021;-62
2023/08/09 08:44:55;;;;;;;3.92;1.10;;;22.60;99.90;;;;;;7378122;19;20939;-62
2023/08/09 08:47:23;;;;;;;3.08;1.42;;;22.60;99.90;;;;;;7377673;19;20402;-62
2023/08/09 08:49:50;;;;;;;2.47;1.45;;;22.80;99.90;;;;;;7376373;19;20035;-64
2023/08/09 08:52:17;;;;;;;2.47;1.02;;;22.70;99.90;;;;;;7378028;19;20022;-62
2023/08/09 08:54:44;;;;;;;1.75;0.98;;;22.90;99.90;;;;;;7378939;19;20014;-58
2023/08/09 08:57:12;;;;;;;1.52;0.90;;;22.90;99.90;;;;;;7376823;19;20022;-58
2023/08/09 08:59:39;;;;;;;3.28;0.90;;;23.20;99.50;;;;;;7378959;19;20044;-59
2023/08/09 09:02:06;;;;;;;2.00;1.10;;;23.10;98.40;;;;;;7378468;19;20021;-58
2023/08/09 09:04:32;;;;;;;3.03;0.90;;;23.40;98.30;;;;;;7375868;19;20023;-58
2023/08/09 09:06:58;;;;;;;1.95;0.82;;;23.50;98.10;;;;;;7374555;19;20563;-58
2023/08/09 09:09:25;;;;;;;1.88;0.90;;;23.80;96.70;;;;;;7374842;19;20356;-58
2023/08/09 09:11:52;;;;;;;3.08;1.00;;;24.00;95.70;;;;;;7376235;19;20593;-62
2023/08/09 09:14:19;;;;;;;2.75;1.15;;;24.10;92.70;;;;;;7376844;19;20011;-62
2023/08/09 09:16:45;;;;;;;1.98;0.90;;;24.20;91.10;;;;;;7375766;19;20160;-63
2023/08/09 09:19:12;;;;;;;2.42;1.00;;;23.70;93.10;;;;;;7377213;19;20022;-60
2023/08/09 09:21:38;;;;;;;2.08;0.80;;;23.90;91.40;;;;;;7375114;19;20014;-63
2023/08/09 09:24:07;;;;;;;4.30;1.48;;;23.70;93.10;;;;;;7379838;19;20585;-62
2023/08/09 09:26:35;;;;;;;3.90;1.23;;;23.00;93.10;;;;;;7375373;19;20018;-62
2023/08/09 09:29:01;;;;;;;1.48;0.82;;;23.30;92.80;;;;;;7376073;19;20010;-63
2023/08/09 09:31:39;;;;;;;2.83;1.02;;;23.70;93.00;;;;;;7379073;19;20050;-57
2023/08/09 09:34:09;;;;;;;3.72;1.50;;;22.70;91.60;;;;;;7378319;19;20371;-57
2023/08/09 09:36:40;;;;;;;5.33;1.30;;;22.20;94.40;;;;;;7374346;19;20482;-62
2023/08/09 09:39:10;;;;;;;4.50;1.73;;;21.50;97.20;;;;;;7379110;19;20018;-62
2023/08/09 09:41:46;;;;;;;4.30;1.30;;;21.50;99.90;;;;;;7378563;19;20465;-62
2023/08/09 09:44:20;;;;;;;3.92;1.27;;;22.20;99.90;;;;;;7376191;19;20018;-62
2023/08/09 09:46:53;;;;;;;2.35;0.80;;;23.20;99.20;;;;;;7374007;19;20010;-62
2023/08/09 09:49:20;;;;;;;2.25;0.93;;;23.70;93.20;;;;;;7375197;19;20051;-62
2023/08/09 09:51:49;;;;;;;1.23;0.90;;;24.10;91.10;;;;;;7380505;19;20019;-62
2023/08/09 09:54:16;;;;;;;3.28;1.00;;;24.50;89.40;;;;;;7376778;19;20478;-61
2023/08/09 09:56:42;;;;;;;2.88;0.95;;;24.40;87.70;;;;;;7378394;19;20535;-62
2023/08/09 09:59:10;;;;;;;3.90;1.00;;;23.90;87.80;;;;;;7376026;19;20021;-62
2023/08/09 10:01:41;;;;;;;3.47;1.27;;;23.40;88.70;;;;;;7374150;19;20015;-64
2023/08/09 10:04:11;;;;;;;3.47;1.10;;;24.00;91.40;;;;;;7373336;19;20108;-62
2023/08/09 10:06:42;;;;;;;4.47;1.17;;;24.20;90.50;;;;;;7374883;19;20015;-62
2023/08/09 10:09:13;;;;;;;4.75;0.98;;;24.50;90.60;;;;;;7377569;19;20022;-62
2023/08/09 10:11:43;;;;;;;1.55;0.82;;;24.50;89.40;;;;;;7375011;19;20486;-62
2023/08/09 10:14:12;;;;;;;2.05;1.00;;;24.70;78.50;;;;;;7374382;19;20027;-63
2023/08/09 10:16:39;;;;;;;3.60;1.10;;;25.00;74.40;;;;;;7371830;19;20031;-63
2023/08/09 10:19:10;;;;;;;1.98;0.80;;;24.80;72.00;;;;;;7374326;19;20555;-63
2023/08/09 10:21:40;;;;;;;2.00;0.93;;;25.20;74.70;;;;;;7373975;19;20050;-59
2023/08/09 10:24:17;;;;;;;3.38;0.90;;;24.50;76.20;;;;;;7375207;19;20015;-59
2023/08/09 10:26:46;;;;;;;3.03;1.02;;;24.30;77.80;;;;;;7374776;19;20616;-56
2023/08/09 10:29:18;;;;;;;2.83;0.85;;;24.80;78.70;;;;;;7374669;19;20014;-57
2023/08/09 10:32:02;;;;;;;4.72;1.25;;;24.40;79.20;;;;;;7374902;19;20521;-58
2023/08/09 10:34:42;;;;;;;2.60;0.80;;;23.80;77.30;;;;;;7373595;19;20010;-58
2023/08/09 10:37:11;;;;;;;2.20;1.00;;;23.20;77.90;;;;;;7374474;19;20502;-58
2023/08/09 10:39:38;;;;;;;1.77;0.70;;;23.40;81.30;;;;;;7373775;19;20025;-58
2023/08/09 10:42:08;;;;;;;3.78;1.10;;;24.20;81.30;;;;;;7376863;19;20025;-59
2023/08/09 10:44:44;;;;;;;2.27;0.90;;;24.70;77.00;;;;;;7373801;19;20052;-58
2023/08/09 10:47:22;;;;;;;3.95;1.13;;;24.80;71.60;;;;;;7373107;19;20289;-59
2023/08/09 10:49:48;;;;;;;3.10;0.85;;;24.70;74.80;;;;;;7373366;19;20021;-59
2023/08/09 10:52:16;;;;;;;2.63;1.02;;;24.90;75.50;;;;;;7375449;19;20513;-63
2023/08/09 10:54:43;;;;;;;2.55;1.00;;;25.40;75.90;;;;;;7374363;19;20021;-63
2023/08/09 10:57:11;;;;;;;2.45;1.00;;;25.60;74.60;;;;;;7375497;19;20509;-63
2023/08/09 10:59:39;;;;;;;2.05;0.90;;;25.70;72.50;;;;;;7376982;19;20090;-59
2023/08/09 11:02:06;;;;;;;2.95;1.10;;;25.30;73.80;;;;;;7377524;19;20016;-63
2023/08/09 11:04:34;;;;;;;2.42;1.10;;;25.00;73.50;;;;;;7378013;19;20030;-58
2023/08/09 11:07:01;;;;;;;4.50;1.17;;;24.50;75.90;;;;;;7373623;19;20022;-58
2023/08/09 11:09:31;;;;;;;2.70;0.90;;;24.00;75.40;;;;;;7373897;19;20471;-58
2023/08/09 11:11:59;;;;;;;3.60;1.00;;;23.70;76.30;;;;;;7375125;19;20018;-59
2023/08/09 11:14:25;;;;;;;4.05;1.17;;;23.80;78.60;;;;;;7373058;19;20042;-57
2023/08/09 11:16:52;;;;;;;4.82;1.10;;;23.80;79.30;;;;;;7370269;19;20029;-59
2023/08/09 11:19:20;;;;;;;5.13;1.08;;;23.60;79.20;;;;;;7374218;19;20034;-58
2023/08/09 11:21:49;;;;;;;2.33;1.17;;;23.30;81.60;;;;;;7371383;19;20039;-58
2023/08/09 11:24:17;;;;;;;2.30;1.00;;;23.30;82.90;;;;;;7376534;19;20038;-58
2023/08/09 11:26:53;;;;;;;3.50;1.02;;;23.00;82.80;;;;;;7370849;19;20785;-60
2023/08/09 11:29:21;;;;;;;3.60;1.02;;;23.10;86.00;;;;;;7373116;19;20523;-58
2023/08/09 11:31:53;;;;;;;2.42;1.00;;;23.90;83.80;;;;;;7372412;19;20019;-59
2023/08/09 11:34:21;;;;;;;3.45;1.20;;;24.60;83.00;;;;;;7372230;19;20563;-59
2023/08/09 11:36:50;;;;;;;2.55;1.05;;;24.50;82.70;;;;;;7370312;19;20490;-58
2023/08/09 11:39:17;;;;;;;2.42;1.00;;;24.30;80.40;;;;;;7373536;19;20018;-58
2023/08/09 11:41:46;;;;;;;2.30;1.00;;;24.20;81.70;;;;;;7380923;19;20217;-59
2023/08/09 11:44:14;;;;;;;3.28;1.15;;;24.10;81.10;;;;;;7381561;19;20596;-59
2023/08/09 11:46:45;;;;;;;2.20;1.23;;;24.50;81.30;;;;;;7379432;19;20393;-58
2023/08/09 11:49:12;;;;;;;2.67;1.25;;;25.20;78.90;;;;;;7381392;19;20518;-63
2023/08/09 11:51:38;;;;;;;2.15;1.10;;;25.20;78.80;;;;;;7379479;19;20565;-59
2023/08/09 11:54:09;;;;;;;2.42;1.10;;;25.40;77.50;;;;;;7376681;19;20022;-63
2023/08/09 11:56:38;;;;;;;2.67;1.00;;;25.80;74.00;;;;;;7379611;19;20586;-62
2023/08/09 11:59:06;;;;;;;4.43;1.00;;;25.80;72.30;;;;;;7378569;19;20014;-62
2023/08/09 12:01:39;;;;;;;2.63;1.27;;;25.20;72.80;;;;;;7379615;19;20105;-62
2023/08/09 12:04:07;;;;;;;2.50;1.20;;;24.30;73.80;;;;;;7382092;19;20022;-62
2023/08/09 12:06:38;;;;;;;2.70;0.82;;;23.90;75.40;;;;;;7382250;19;20015;-62
2023/08/09 12:09:35;;;;;;;3.60;1.23;;;23.70;77.50;;;;;;7379481;19;20480;-62
2023/08/09 12:12:16;;;;;;;3.20;0.95;;;22.90;77.60;;;;;;7380505;19;20054;-63
2023/08/09 12:14:48;;;;;;;5.03;1.20;;;22.60;80.30;;;;;;7379358;19;20528;-62
2023/08/09 12:17:22;;;;;;;2.55;0.80;;;23.40;79.60;;;;;;7380951;19;20486;-62
2023/08/09 12:19:49;;;;;;;2.97;1.10;;;24.50;78.70;;;;;;7377241;19;20089;-63
2023/08/09 12:22:15;;;;;;;2.22;0.95;;;24.80;77.10;;;;;;7379671;19;20478;-59
2023/08/09 12:24:41;;;;;;;4.10;1.00;;;24.70;75.70;;;;;;7377138;19;20011;-59
2023/08/09 12:27:08;;;;;;;3.17;1.23;;;24.60;74.80;;;;;;7378852;19;20426;-63
2023/08/09 12:29:35;;;;;;;3.53;0.98;;;24.50;74.00;;;;;;7379012;19;20025;-62
2023/08/09 12:32:03;;;;;;;3.08;1.10;;;24.30;74.20;;;;;;7377642;19;20070;-62
2023/08/09 12:34:30;;;;;;;2.33;1.00;;;24.20;74.90;;;;;;7377661;19;20117;-62
2023/08/09 12:36:57;;;;;;;2.75;1.00;;;24.20;76.20;;;;;;7376934;19;20034;-61
2023/08/09 12:39:23;;;;;;;3.17;1.10;;;23.50;74.70;;;;;;7378557;19;20406;-61
2023/08/09 12:41:50;;;;;;;2.70;1.05;;;23.20;75.70;;;;;;7379261;19;20014;-62